createdAt,value
2023-04-23T00:02:06.819Z,38.40
2023-04-23T00:08:11.234Z,34.47
2023-04-23T00:14:13.707Z,30.27
2023-04-23T00:20:16.914Z,32.40
2023-04-23T00:26:19.526Z,36.45
2023-04-23T00:32:23.050Z,39.05
2023-04-23T00:38:27.075Z,37.38
2023-04-23T00:44:29.635Z,41.53
2023-04-23T00:50:32.092Z,44.47
2023-04-23T00:56:34.743Z,37.92
2023-04-23T01:02:37.834Z,34.25
2023-04-23T01:08:43.565Z,39.53
2023-04-23T01:14:46.544Z,37.75
2023-04-23T01:20:50.168Z,36.15
2023-04-23T01:26:53.283Z,37.67
2023-04-23T01:32:56.874Z,34.08
2023-04-23T01:38:59.524Z,36.50
2023-04-23T01:45:03.443Z,32.50
2023-04-23T01:51:06.158Z,38.45
2023-04-23T01:57:09.894Z,42.53
2023-04-23T02:03:12.390Z,33.85
2023-04-23T02:09:15.064Z,28.48
2023-04-23T02:15:18.083Z,32.53
2023-04-23T02:21:20.398Z,33.92
2023-04-23T02:27:22.744Z,28.98
2023-04-23T02:33:26.249Z,30.95
2023-04-23T02:39:28.769Z,31.38
2023-04-23T02:45:31.348Z,29.77
2023-04-23T02:51:33.590Z,31.30
2023-04-23T02:57:36.284Z,38.53
2023-04-23T03:03:39.309Z,36.42
2023-04-23T03:09:42.742Z,33.05
2023-04-23T03:15:45.254Z,29.13
2023-04-23T03:21:47.617Z,37.80
2023-04-23T03:27:50.742Z,35.65
2023-04-23T03:33:53.193Z,36.55
2023-04-23T03:40:07.598Z,32.55
2023-04-23T03:46:14.294Z,40.25
2023-04-23T03:52:18.141Z,31.85
2023-04-23T03:58:20.771Z,33.97
2023-04-23T04:10:26.613Z,34.55
2023-04-23T04:22:31.342Z,47.60
2023-04-23T04:28:36.846Z,33.17
2023-04-23T04:34:40.329Z,32.60
2023-04-23T04:40:43.154Z,37.65
2023-04-23T04:46:45.521Z,33.50
2023-04-23T04:52:48.106Z,49.22
2023-04-23T04:58:50.777Z,37.40
2023-04-23T05:04:53.354Z,38.25
2023-04-23T05:10:55.646Z,37.85
2023-04-23T05:16:58.205Z,25.60
2023-04-23T05:29:05.647Z,20.65
2023-04-23T05:35:08.273Z,22.10
2023-04-23T05:41:10.868Z,22.15
2023-04-23T05:47:14.256Z,24.95
2023-04-23T05:53:16.712Z,24.65
2023-04-23T05:59:19.149Z,23.35
2023-04-23T06:05:21.793Z,20.35
2023-04-23T06:11:24.821Z,25.65
2023-04-23T06:17:27.062Z,26.50
2023-04-23T06:23:29.313Z,15.88
2023-04-23T06:29:32.101Z,17.02
2023-04-23T06:35:38.142Z,15.20
2023-04-23T06:41:40.624Z,16.90
2023-04-23T06:47:58.011Z,13.35
2023-04-23T06:54:00.388Z,11.50
2023-04-23T07:00:02.781Z,17.70
2023-04-23T07:06:12.086Z,14.52
2023-04-23T07:12:16.111Z,9.48
2023-04-23T07:18:22.021Z,9.23
2023-04-23T07:24:26.835Z,14.88
2023-04-23T07:30:29.282Z,14.88
2023-04-23T07:36:32.472Z,8.57
2023-04-23T07:42:35.106Z,8.88
2023-04-23T07:48:37.782Z,7.85
2023-04-23T07:54:40.276Z,15.35
2023-04-23T08:00:42.768Z,10.07
2023-04-23T08:06:45.098Z,10.68
2023-04-23T08:12:47.741Z,12.75
2023-04-23T08:19:01.735Z,12.65
2023-04-23T08:25:07.683Z,21.63
2023-04-23T08:31:22.612Z,9.00
2023-04-23T08:37:31.212Z,16.38
2023-04-23T08:44:08.514Z,13.52
2023-04-23T08:50:13.387Z,13.30
2023-04-23T08:56:16.353Z,9.55
2023-04-23T09:02:18.988Z,9.30
2023-04-23T09:08:22.201Z,16.08
2023-04-23T09:14:28.116Z,11.32
2023-04-23T09:20:30.628Z,12.20
2023-04-23T09:26:33.108Z,15.00
2023-04-23T09:32:36.876Z,9.40
2023-04-23T09:38:41.847Z,11.93
2023-04-23T09:44:44.474Z,7.90
2023-04-23T09:50:47.181Z,18.27
2023-04-23T09:57:06.198Z,10.88
2023-04-23T10:03:10.243Z,11.07
2023-04-23T10:09:13.470Z,17.55
2023-04-23T10:15:15.948Z,19.25
2023-04-23T10:21:20.031Z,8.95
2023-04-23T10:27:33.294Z,13.25
2023-04-23T10:33:56.144Z,12.18
2023-04-23T10:40:11.973Z,10.80
2023-04-23T10:46:34.824Z,9.95
2023-04-23T10:52:39.425Z,8.98
2023-04-23T10:58:52.343Z,12.75
2023-04-23T11:04:59.141Z,17.30
2023-04-23T11:11:06.925Z,5.55
2023-04-23T11:17:16.312Z,7.32
2023-04-23T11:23:35.100Z,9.70
2023-04-23T11:29:39.971Z,7.57
2023-04-23T11:35:43.086Z,13.75
2023-04-23T11:41:47.259Z,8.38
2023-04-23T11:47:57.784Z,11.55
2023-04-23T11:54:05.047Z,16.70
2023-04-23T12:00:16.512Z,15.60
2023-04-23T12:06:20.129Z,16.53
2023-04-23T12:12:23.759Z,10.95
2023-04-23T12:18:39.851Z,15.25
2023-04-23T12:24:55.040Z,9.05
2023-04-23T12:31:02.025Z,16.67
2023-04-23T12:37:07.973Z,13.57
2023-04-23T12:43:10.174Z,15.38
2023-04-23T12:49:12.682Z,16.77
2023-04-23T12:55:15.228Z,10.88
2023-04-23T13:07:19.850Z,22.50
2023-04-23T13:13:22.476Z,10.90
2023-04-23T13:19:25.234Z,7.60
2023-04-23T13:25:27.440Z,12.07
2023-04-23T13:31:30.386Z,11.75
2023-04-23T13:37:32.915Z,14.10
2023-04-23T13:49:37.913Z,32.70
2023-04-23T13:55:40.616Z,12.70
2023-04-23T14:01:43.035Z,17.15
2023-04-23T14:13:48.030Z,11.48
2023-04-23T14:26:14.017Z,7.03
2023-04-23T14:32:16.538Z,8.82
2023-04-23T14:44:23.779Z,8.27
2023-04-23T14:50:26.653Z,11.75
2023-04-23T14:56:29.017Z,9.48
2023-04-23T15:02:31.613Z,17.15
2023-04-23T15:08:34.485Z,8.75
2023-04-23T15:14:38.247Z,11.48
2023-04-23T15:20:41.082Z,13.15
2023-04-23T15:26:44.007Z,10.10
2023-04-23T15:32:46.338Z,14.57
2023-04-23T15:38:48.836Z,8.63
2023-04-23T15:44:55.106Z,9.70
2023-04-23T15:50:57.432Z,11.98
2023-04-23T15:56:59.599Z,19.55
2023-04-23T16:03:04.705Z,12.60
2023-04-23T16:09:10.559Z,16.52
2023-04-23T16:15:13.102Z,14.07
2023-04-23T16:27:17.550Z,19.67
2023-04-23T16:33:19.694Z,15.60
2023-04-23T16:39:22.444Z,15.27
2023-04-23T16:45:24.798Z,16.75
2023-04-23T16:51:28.764Z,22.45
2023-04-23T16:57:31.177Z,12.77
2023-04-23T17:03:34.269Z,8.18
2023-04-23T17:09:36.714Z,10.10
2023-04-23T17:15:39.017Z,8.35
2023-04-23T17:21:41.399Z,13.35
2023-04-23T17:27:43.938Z,10.30
2023-04-23T17:33:49.724Z,11.13
2023-04-23T17:39:52.293Z,9.55
2023-04-23T17:45:54.574Z,12.95
2023-04-23T17:51:56.921Z,13.20
2023-04-23T17:58:05.885Z,15.20
2023-04-23T18:04:09.302Z,15.77
2023-04-23T18:10:15.009Z,13.98
2023-04-23T18:16:17.694Z,17.77
2023-04-23T18:28:22.975Z,12.77
2023-04-23T18:34:25.842Z,16.17
2023-04-23T18:40:28.638Z,12.23
2023-04-23T18:46:31.679Z,13.30
2023-04-23T18:52:34.236Z,25.80
2023-04-23T19:04:39.509Z,12.70
2023-04-23T19:10:42.118Z,11.57
2023-04-23T19:16:44.398Z,12.50
2023-04-23T19:22:47.081Z,19.58
2023-04-23T19:34:51.870Z,21.52
2023-04-23T19:40:54.558Z,34.97
2023-04-23T19:52:59.623Z,12.88
2023-04-23T20:05:04.784Z,12.60
2023-04-23T20:11:07.785Z,14.68
2023-04-23T20:17:10.785Z,17.52
2023-04-23T20:23:13.297Z,19.05
2023-04-23T20:29:15.694Z,20.67
2023-04-23T20:35:18.240Z,14.95
2023-04-23T20:41:21.161Z,15.18
2023-04-23T20:47:24.554Z,16.17
2023-04-23T20:53:27.313Z,14.75
2023-04-23T20:59:30.045Z,10.80
2023-04-23T21:05:32.379Z,16.77
2023-04-23T21:11:34.854Z,20.73
2023-04-23T21:17:37.118Z,16.10
2023-04-23T21:23:39.738Z,25.15
2023-04-23T21:29:45.772Z,19.23
2023-04-23T21:35:49.074Z,10.88
2023-04-23T21:41:51.523Z,17.63
2023-04-23T21:47:54.040Z,19.92
2023-04-23T21:53:56.565Z,12.43
2023-04-23T21:59:59.121Z,21.27
2023-04-23T22:06:03.103Z,18.63
2023-04-23T22:12:05.607Z,18.50
2023-04-23T22:18:08.379Z,16.55
2023-04-23T22:24:11.121Z,11.73
2023-04-23T22:36:17.296Z,18.02
2023-04-23T22:42:20.573Z,31.75
2023-04-23T22:48:24.898Z,12.05
2023-04-23T22:54:30.551Z,15.18
2023-04-23T23:00:32.862Z,14.68
2023-04-23T23:06:35.083Z,15.40
2023-04-23T23:12:39.640Z,13.97
2023-04-23T23:18:42.339Z,17.35
2023-04-23T23:30:48.898Z,9.50
2023-04-23T23:36:52.235Z,19.45
2023-04-23T23:42:54.801Z,14.13
2023-04-23T23:48:57.096Z,21.25
2023-04-23T23:54:59.252Z,12.20
